sensor_id;sensor_type;location;lat;lon;timestamp;temperature;humidity
26595;DHT22;14238;49.496;8.154;2022-09-01T00:01:41;14.60;99.90
26595;DHT22;14238;49.496;8.154;2022-09-01T00:04:10;14.60;99.90
26595;DHT22;14238;49.496;8.154;2022-09-01T00:06:37;14.50;99.90
26595;DHT22;14238;49.496;8.154;2022-09-01T00:09:07;14.60;99.90
26595;DHT22;14238;49.496;8.154;2022-09-01T00:11:33;14.50;99.90
26595;DHT22;14238;49.496;8.154;2022-09-01T00:14:00;14.40;99.90
26595;DHT22;14238;49.496;8.154;2022-09-01T00:16:27;14.50;99.90
26595;DHT22;14238;49.496;8.154;2022-09-01T00:18:53;14.50;99.90
26595;DHT22;14238;49.496;8.154;2022-09-01T00:21:23;14.50;99.90
26595;DHT22;14238;49.496;8.154;2022-09-01T00:23:49;14.40;99.90
26595;DHT22;14238;49.496;8.154;2022-09-01T00:26:15;14.50;99.90
26595;DHT22;14238;49.496;8.154;2022-09-01T00:28:40;14.50;99.90
26595;DHT22;14238;49.496;8.154;2022-09-01T00:31:06;14.60;99.90
26595;DHT22;14238;49.496;8.154;2022-09-01T00:33:33;14.60;99.90
26595;DHT22;14238;49.496;8.154;2022-09-01T00:36:00;14.60;99.90
26595;DHT22;14238;49.496;8.154;2022-09-01T00:38:25;14.50;99.90
26595;DHT22;14238;49.496;8.154;2022-09-01T00:40:51;14.60;99.90
26595;DHT22;14238;49.496;8.154;2022-09-01T00:43:22;14.50;99.90
26595;DHT22;14238;49.496;8.154;2022-09-01T00:45:48;14.40;99.90
26595;DHT22;14238;49.496;8.154;2022-09-01T00:48:16;14.40;99.90
26595;DHT22;14238;49.496;8.154;2022-09-01T00:50:42;14.50;99.90
26595;DHT22;14238;49.496;8.154;2022-09-01T00:53:08;14.40;99.90
26595;DHT22;14238;49.496;8.154;2022-09-01T00:55:36;14.40;99.90
26595;DHT22;14238;49.496;8.154;2022-09-01T00:58:04;14.40;99.90
26595;DHT22;14238;49.496;8.154;2022-09-01T01:00:31;14.40;99.90
26595;DHT22;14238;49.496;8.154;2022-09-01T01:02:58;14.40;99.90
26595;DHT22;14238;49.496;8.154;2022-09-01T01:05:28;14.50;99.90
26595;DHT22;14238;49.496;8.154;2022-09-01T01:07:57;14.50;99.90
26595;DHT22;14238;49.496;8.154;2022-09-01T01:10:24;14.50;99.90
26595;DHT22;14238;49.496;8.154;2022-09-01T01:12:50;14.40;99.90
26595;DHT22;14238;49.496;8.154;2022-09-01T01:15:18;14.40;99.90
26595;DHT22;14238;49.496;8.154;2022-09-01T01:17:44;14.40;99.90
26595;DHT22;14238;49.496;8.154;2022-09-01T01:20:11;14.40;99.90
26595;DHT22;14238;49.496;8.154;2022-09-01T01:23:38;14.50;99.90
26595;DHT22;14238;49.496;8.154;2022-09-01T01:25:59;14.50;99.90
26595;DHT22;14238;49.496;8.154;2022-09-01T01:28:32;14.50;99.90
26595;DHT22;14238;49.496;8.154;2022-09-01T01:31:10;14.50;99.90
26595;DHT22;14238;49.496;8.154;2022-09-01T01:33:49;14.60;99.90
26595;DHT22;14238;49.496;8.154;2022-09-01T01:36:18;14.50;99.90
26595;DHT22;14238;49.496;8.154;2022-09-01T01:38:47;14.60;99.90
26595;DHT22;14238;49.496;8.154;2022-09-01T01:41:15;14.60;99.90
26595;DHT22;14238;49.496;8.154;2022-09-01T01:43:42;14.70;99.90
26595;DHT22;14238;49.496;8.154;2022-09-01T01:46:09;14.70;99.90
26595;DHT22;14238;49.496;8.154;2022-09-01T01:48:37;14.70;99.90
26595;DHT22;14238;49.496;8.154;2022-09-01T01:51:04;14.70;99.90
26595;DHT22;14238;49.496;8.154;2022-09-01T01:53:31;14.70;99.90
26595;DHT22;14238;49.496;8.154;2022-09-01T01:55:57;14.70;99.90
26595;DHT22;14238;49.496;8.154;2022-09-01T01:58:25;14.70;99.90
26595;DHT22;14238;49.496;8.154;2022-09-01T02:00:54;14.60;99.90
26595;DHT22;14238;49.496;8.154;2022-09-01T02:03:23;14.60;99.90
26595;DHT22;14238;49.496;8.154;2022-09-01T02:05:51;14.70;99.90
26595;DHT22;14238;49.496;8.154;2022-09-01T02:08:19;14.70;99.90
26595;DHT22;14238;49.496;8.154;2022-09-01T02:10:49;14.70;99.90
26595;DHT22;14238;49.496;8.154;2022-09-01T02:13:16;14.70;99.90
26595;DHT22;14238;49.496;8.154;2022-09-01T02:15:46;14.60;99.90
26595;DHT22;14238;49.496;8.154;2022-09-01T02:20:41;14.70;99.90
26595;DHT22;14238;49.496;8.154;2022-09-01T02:23:07;14.70;99.90
26595;DHT22;14238;49.496;8.154;2022-09-01T02:25:37;14.70;99.90
26595;DHT22;14238;49.496;8.154;2022-09-01T02:28:03;14.70;99.90
26595;DHT22;14238;49.496;8.154;2022-09-01T02:30:34;14.70;99.90
26595;DHT22;14238;49.496;8.154;2022-09-01T02:33:00;14.70;99.90
26595;DHT22;14238;49.496;8.154;2022-09-01T02:35:26;14.60;99.90
26595;DHT22;14238;49.496;8.154;2022-09-01T02:38:01;14.70;99.90
26595;DHT22;14238;49.496;8.154;2022-09-01T02:40:27;14.70;99.90
26595;DHT22;14238;49.496;8.154;2022-09-01T02:42:56;14.70;99.90
26595;DHT22;14238;49.496;8.154;2022-09-01T02:45:23;14.70;99.90
26595;DHT22;14238;49.496;8.154;2022-09-01T02:47:49;14.70;99.90
26595;DHT22;14238;49.496;8.154;2022-09-01T02:50:15;14.70;99.90
26595;DHT22;14238;49.496;8.154;2022-09-01T02:52:44;14.70;99.90
26595;DHT22;14238;49.496;8.154;2022-09-01T02:55:10;14.70;99.90
26595;DHT22;14238;49.496;8.154;2022-09-01T02:57:36;14.70;99.90
26595;DHT22;14238;49.496;8.154;2022-09-01T03:00:05;14.80;99.90
26595;DHT22;14238;49.496;8.154;2022-09-01T03:02:47;14.80;99.90
26595;DHT22;14238;49.496;8.154;2022-09-01T03:05:12;14.80;99.90
26595;DHT22;14238;49.496;8.154;2022-09-01T03:07:40;14.80;99.90
26595;DHT22;14238;49.496;8.154;2022-09-01T03:10:07;14.80;99.90
26595;DHT22;14238;49.496;8.154;2022-09-01T03:12:34;14.80;99.90
26595;DHT22;14238;49.496;8.154;2022-09-01T03:15:00;14.80;99.90
26595;DHT22;14238;49.496;8.154;2022-09-01T03:17:25;14.80;99.90
26595;DHT22;14238;49.496;8.154;2022-09-01T03:19:51;14.90;99.90
26595;DHT22;14238;49.496;8.154;2022-09-01T03:22:17;15.00;99.90
26595;DHT22;14238;49.496;8.154;2022-09-01T03:24:42;15.00;99.90
26595;DHT22;14238;49.496;8.154;2022-09-01T03:27:08;15.10;99.90
26595;DHT22;14238;49.496;8.154;2022-09-01T03:29:36;15.10;99.90
26595;DHT22;14238;49.496;8.154;2022-09-01T03:32:04;15.10;99.90
26595;DHT22;14238;49.496;8.154;2022-09-01T03:34:29;15.10;99.90
26595;DHT22;14238;49.496;8.154;2022-09-01T03:36:58;15.10;99.90
26595;DHT22;14238;49.496;8.154;2022-09-01T03:39:24;15.20;99.90
26595;DHT22;14238;49.496;8.154;2022-09-01T03:41:50;15.20;99.90
26595;DHT22;14238;49.496;8.154;2022-09-01T03:44:15;15.20;99.90
26595;DHT22;14238;49.496;8.154;2022-09-01T03:46:42;15.20;99.90
26595;DHT22;14238;49.496;8.154;2022-09-01T03:49:08;15.20;99.90
26595;DHT22;14238;49.496;8.154;2022-09-01T03:51:40;15.20;99.90
26595;DHT22;14238;49.496;8.154;2022-09-01T03:54:07;15.30;99.90
26595;DHT22;14238;49.496;8.154;2022-09-01T03:56:33;15.30;99.90
26595;DHT22;14238;49.496;8.154;2022-09-01T03:58:59;15.30;99.90
26595;DHT22;14238;49.496;8.154;2022-09-01T04:01:26;15.30;99.90
26595;DHT22;14238;49.496;8.154;2022-09-01T04:03:52;15.30;99.90
26595;DHT22;14238;49.496;8.154;2022-09-01T04:06:18;15.40;99.90
26595;DHT22;14238;49.496;8.154;2022-09-01T04:08:45;15.40;99.90
26595;DHT22;14238;49.496;8.154;2022-09-01T04:11:16;15.40;99.90
26595;DHT22;14238;49.496;8.154;2022-09-01T04:13:49;15.30;99.90
26595;DHT22;14238;49.496;8.154;2022-09-01T04:16:26;15.40;99.90
26595;DHT22;14238;49.496;8.154;2022-09-01T04:19:13;15.40;99.90
26595;DHT22;14238;49.496;8.154;2022-09-01T04:21:58;15.40;99.90
26595;DHT22;14238;49.496;8.154;2022-09-01T04:24:26;15.40;99.90
26595;DHT22;14238;49.496;8.154;2022-09-01T04:26:56;15.40;99.90
26595;DHT22;14238;49.496;8.154;2022-09-01T04:29:23;15.40;99.90
26595;DHT22;14238;49.496;8.154;2022-09-01T04:31:55;15.40;99.90
26595;DHT22;14238;49.496;8.154;2022-09-01T04:34:22;15.30;99.90
26595;DHT22;14238;49.496;8.154;2022-09-01T04:36:48;15.30;99.90
26595;DHT22;14238;49.496;8.154;2022-09-01T04:39:15;15.20;99.90
26595;DHT22;14238;49.496;8.154;2022-09-01T04:41:43;15.10;99.90
26595;DHT22;14238;49.496;8.154;2022-09-01T04:44:11;15.10;99.90
26595;DHT22;14238;49.496;8.154;2022-09-01T04:46:39;15.00;99.90
26595;DHT22;14238;49.496;8.154;2022-09-01T04:49:08;14.80;99.90
26595;DHT22;14238;49.496;8.154;2022-09-01T04:51:43;14.90;99.90
26595;DHT22;14238;49.496;8.154;2022-09-01T04:54:10;14.80;99.90
26595;DHT22;14238;49.496;8.154;2022-09-01T04:56:40;14.70;99.90
26595;DHT22;14238;49.496;8.154;2022-09-01T04:59:07;14.70;99.90
26595;DHT22;14238;49.496;8.154;2022-09-01T05:01:35;14.60;99.90
26595;DHT22;14238;49.496;8.154;2022-09-01T05:04:09;14.50;99.90
26595;DHT22;14238;49.496;8.154;2022-09-01T05:06:38;14.50;99.90
26595;DHT22;14238;49.496;8.154;2022-09-01T05:09:05;14.40;99.90
26595;DHT22;14238;49.496;8.154;2022-09-01T05:11:32;14.40;99.90
26595;DHT22;14238;49.496;8.154;2022-09-01T05:13:57;14.40;99.90
26595;DHT22;14238;49.496;8.154;2022-09-01T05:16:23;14.40;99.90
26595;DHT22;14238;49.496;8.154;2022-09-01T05:18:51;14.30;99.90
26595;DHT22;14238;49.496;8.154;2022-09-01T05:21:20;14.40;99.90
26595;DHT22;14238;49.496;8.154;2022-09-01T05:23:49;14.40;99.90
26595;DHT22;14238;49.496;8.154;2022-09-01T05:26:28;14.40;99.90
26595;DHT22;14238;49.496;8.154;2022-09-01T05:28:58;14.50;99.90
26595;DHT22;14238;49.496;8.154;2022-09-01T05:31:26;14.60;99.90
26595;DHT22;14238;49.496;8.154;2022-09-01T05:33:52;14.70;99.90
26595;DHT22;14238;49.496;8.154;2022-09-01T05:36:20;14.80;99.90
26595;DHT22;14238;49.496;8.154;2022-09-01T05:38:48;15.00;99.90
26595;DHT22;14238;49.496;8.154;2022-09-01T05:41:15;15.00;99.90
26595;DHT22;14238;49.496;8.154;2022-09-01T05:43:44;15.10;99.90
26595;DHT22;14238;49.496;8.154;2022-09-01T05:46:18;15.10;99.90
26595;DHT22;14238;49.496;8.154;2022-09-01T05:48:46;15.10;99.90
26595;DHT22;14238;49.496;8.154;2022-09-01T05:51:15;15.10;99.90
26595;DHT22;14238;49.496;8.154;2022-09-01T05:53:47;15.10;99.90
26595;DHT22;14238;49.496;8.154;2022-09-01T05:56:17;15.10;99.90
26595;DHT22;14238;49.496;8.154;2022-09-01T05:58:44;15.10;99.90
26595;DHT22;14238;49.496;8.154;2022-09-01T06:01:22;15.20;99.90
26595;DHT22;14238;49.496;8.154;2022-09-01T06:03:53;15.20;99.90
26595;DHT22;14238;49.496;8.154;2022-09-01T06:06:28;15.20;99.90
26595;DHT22;14238;49.496;8.154;2022-09-01T06:08:54;15.30;99.90
26595;DHT22;14238;49.496;8.154;2022-09-01T06:11:25;15.30;99.90
26595;DHT22;14238;49.496;8.154;2022-09-01T06:13:51;15.30;99.90
26595;DHT22;14238;49.496;8.154;2022-09-01T06:16:22;15.30;99.90
26595;DHT22;14238;49.496;8.154;2022-09-01T06:18:51;15.40;99.90
26595;DHT22;14238;49.496;8.154;2022-09-01T06:21:18;15.30;99.90
26595;DHT22;14238;49.496;8.154;2022-09-01T06:23:46;15.40;99.90
26595;DHT22;14238;49.496;8.154;2022-09-01T06:26:27;15.40;99.90
26595;DHT22;14238;49.496;8.154;2022-09-01T06:28:58;15.50;99.90
26595;DHT22;14238;49.496;8.154;2022-09-01T06:31:27;15.50;99.90
26595;DHT22;14238;49.496;8.154;2022-09-01T06:33:59;15.60;99.90
26595;DHT22;14238;49.496;8.154;2022-09-01T06:36:25;15.70;99.90
26595;DHT22;14238;49.496;8.154;2022-09-01T06:38:53;15.70;99.90
26595;DHT22;14238;49.496;8.154;2022-09-01T06:41:21;15.80;99.90
26595;DHT22;14238;49.496;8.154;2022-09-01T06:43:49;15.90;99.90
26595;DHT22;14238;49.496;8.154;2022-09-01T06:46:16;15.90;99.90
26595;DHT22;14238;49.496;8.154;2022-09-01T06:48:44;16.00;99.90
26595;DHT22;14238;49.496;8.154;2022-09-01T06:51:20;15.90;99.90
26595;DHT22;14238;49.496;8.154;2022-09-01T06:53:48;16.00;99.90
26595;DHT22;14238;49.496;8.154;2022-09-01T06:56:17;16.00;99.90
26595;DHT22;14238;49.496;8.154;2022-09-01T06:58:44;16.10;99.90
26595;DHT22;14238;49.496;8.154;2022-09-01T07:01:13;16.20;99.90
26595;DHT22;14238;49.496;8.154;2022-09-01T07:03:45;16.30;99.90
26595;DHT22;14238;49.496;8.154;2022-09-01T07:06:13;16.30;99.90
26595;DHT22;14238;49.496;8.154;2022-09-01T07:08:39;16.30;99.90
26595;DHT22;14238;49.496;8.154;2022-09-01T07:11:17;16.40;99.90
26595;DHT22;14238;49.496;8.154;2022-09-01T07:13:48;16.60;99.90
26595;DHT22;14238;49.496;8.154;2022-09-01T07:16:17;16.70;99.90
26595;DHT22;14238;49.496;8.154;2022-09-01T07:18:46;16.90;99.90
26595;DHT22;14238;49.496;8.154;2022-09-01T07:21:12;16.90;99.90
26595;DHT22;14238;49.496;8.154;2022-09-01T07:23:37;17.00;99.90
26595;DHT22;14238;49.496;8.154;2022-09-01T07:26:05;17.10;99.90
26595;DHT22;14238;49.496;8.154;2022-09-01T07:28:32;17.30;99.90
26595;DHT22;14238;49.496;8.154;2022-09-01T07:30:57;17.20;99.90
26595;DHT22;14238;49.496;8.154;2022-09-01T07:33:23;17.30;99.90
26595;DHT22;14238;49.496;8.154;2022-09-01T07:35:50;17.30;99.90
26595;DHT22;14238;49.496;8.154;2022-09-01T07:38:18;17.50;99.90
26595;DHT22;14238;49.496;8.154;2022-09-01T07:40:44;17.60;99.90
26595;DHT22;14238;49.496;8.154;2022-09-01T07:43:22;17.70;99.90
26595;DHT22;14238;49.496;8.154;2022-09-01T07:45:51;17.80;99.90
26595;DHT22;14238;49.496;8.154;2022-09-01T07:48:18;17.80;99.90
26595;DHT22;14238;49.496;8.154;2022-09-01T07:50:46;17.80;99.90
26595;DHT22;14238;49.496;8.154;2022-09-01T07:53:33;17.80;99.90
26595;DHT22;14238;49.496;8.154;2022-09-01T07:56:07;17.80;99.90
26595;DHT22;14238;49.496;8.154;2022-09-01T07:58:34;17.70;99.90
26595;DHT22;14238;49.496;8.154;2022-09-01T08:01:04;17.80;99.90
26595;DHT22;14238;49.496;8.154;2022-09-01T08:03:30;17.80;99.90
26595;DHT22;14238;49.496;8.154;2022-09-01T08:06:02;17.90;99.90
26595;DHT22;14238;49.496;8.154;2022-09-01T08:08:31;18.00;99.90
26595;DHT22;14238;49.496;8.154;2022-09-01T08:10:57;18.10;99.90
26595;DHT22;14238;49.496;8.154;2022-09-01T08:13:22;18.30;99.90
26595;DHT22;14238;49.496;8.154;2022-09-01T08:15:48;18.50;99.90
26595;DHT22;14238;49.496;8.154;2022-09-01T08:18:13;18.60;99.90
26595;DHT22;14238;49.496;8.154;2022-09-01T08:20:40;18.80;99.90
26595;DHT22;14238;49.496;8.154;2022-09-01T08:23:11;19.00;99.90
26595;DHT22;14238;49.496;8.154;2022-09-01T08:25:38;19.20;99.90
26595;DHT22;14238;49.496;8.154;2022-09-01T08:28:04;19.20;99.90
26595;DHT22;14238;49.496;8.154;2022-09-01T08:30:30;19.20;99.90
26595;DHT22;14238;49.496;8.154;2022-09-01T08:33:00;19.20;99.90
26595;DHT22;14238;49.496;8.154;2022-09-01T08:35:27;19.20;99.90
26595;DHT22;14238;49.496;8.154;2022-09-01T08:37:57;19.30;99.90
26595;DHT22;14238;49.496;8.154;2022-09-01T08:40:24;19.40;99.90
26595;DHT22;14238;49.496;8.154;2022-09-01T08:43:15;19.60;99.90
26595;DHT22;14238;49.496;8.154;2022-09-01T08:48:30;20.50;99.90
26595;DHT22;14238;49.496;8.154;2022-09-01T08:51:11;20.60;99.90
26595;DHT22;14238;49.496;8.154;2022-09-01T08:53:46;20.90;99.90
26595;DHT22;14238;49.496;8.154;2022-09-01T08:56:15;21.30;99.90
26595;DHT22;14238;49.496;8.154;2022-09-01T08:58:42;22.00;99.90
26595;DHT22;14238;49.496;8.154;2022-09-01T09:01:22;21.80;99.90
26595;DHT22;14238;49.496;8.154;2022-09-01T09:07:48;21.60;99.90
26595;DHT22;14238;49.496;8.154;2022-09-01T09:09:54;21.70;99.90
26595;DHT22;14238;49.496;8.154;2022-09-01T09:12:35;21.10;99.90
26595;DHT22;14238;49.496;8.154;2022-09-01T09:15:14;20.80;99.90
26595;DHT22;14238;49.496;8.154;2022-09-01T09:17:46;20.50;99.90
26595;DHT22;14238;49.496;8.154;2022-09-01T09:20:13;20.40;99.90
26595;DHT22;14238;49.496;8.154;2022-09-01T09:49:38;21.10;99.90
26595;DHT22;14238;49.496;8.154;2022-09-01T09:54:35;20.90;99.90
26595;DHT22;14238;49.496;8.154;2022-09-01T09:57:21;21.30;99.90
26595;DHT22;14238;49.496;8.154;2022-09-01T10:04:59;23.20;99.90
26595;DHT22;14238;49.496;8.154;2022-09-01T10:07:30;23.70;99.90
26595;DHT22;14238;49.496;8.154;2022-09-01T10:09:59;24.00;99.90
26595;DHT22;14238;49.496;8.154;2022-09-01T10:12:26;24.50;99.90
26595;DHT22;14238;49.496;8.154;2022-09-01T10:15:08;24.20;99.90
26595;DHT22;14238;49.496;8.154;2022-09-01T10:17:39;23.40;99.90
26595;DHT22;14238;49.496;8.154;2022-09-01T10:20:17;22.70;99.90
26595;DHT22;14238;49.496;8.154;2022-09-01T10:22:45;22.30;99.90
26595;DHT22;14238;49.496;8.154;2022-09-01T10:25:23;22.20;99.90
26595;DHT22;14238;49.496;8.154;2022-09-01T10:28:11;22.00;99.90
26595;DHT22;14238;49.496;8.154;2022-09-01T10:30:42;22.20;99.90
26595;DHT22;14238;49.496;8.154;2022-09-01T10:33:11;22.30;99.90
26595;DHT22;14238;49.496;8.154;2022-09-01T10:35:41;22.40;99.90
26595;DHT22;14238;49.496;8.154;2022-09-01T10:38:18;22.10;99.90
26595;DHT22;14238;49.496;8.154;2022-09-01T10:40:46;21.80;99.90
26595;DHT22;14238;49.496;8.154;2022-09-01T10:43:38;21.70;99.90
26595;DHT22;14238;49.496;8.154;2022-09-01T10:48:34;22.60;99.90
26595;DHT22;14238;49.496;8.154;2022-09-01T10:53:59;22.40;99.90
26595;DHT22;14238;49.496;8.154;2022-09-01T10:56:41;22.30;99.90
26595;DHT22;14238;49.496;8.154;2022-09-01T10:59:26;22.10;99.90
26595;DHT22;14238;49.496;8.154;2022-09-01T11:04:23;22.20;99.90
26595;DHT22;14238;49.496;8.154;2022-09-01T11:09:45;23.20;99.90
26595;DHT22;14238;49.496;8.154;2022-09-01T11:14:59;24.90;99.90
26595;DHT22;14238;49.496;8.154;2022-09-01T11:17:35;24.60;99.90
26595;DHT22;14238;49.496;8.154;2022-09-01T11:20:51;25.10;99.90
26595;DHT22;14238;49.496;8.154;2022-09-01T11:23:20;25.00;99.90
26595;DHT22;14238;49.496;8.154;2022-09-01T11:25:52;24.70;99.90
26595;DHT22;14238;49.496;8.154;2022-09-01T11:30:54;23.40;99.90
26595;DHT22;14238;49.496;8.154;2022-09-01T11:36:28;22.70;99.90
26595;DHT22;14238;49.496;8.154;2022-09-01T11:39:34;22.60;99.90
26595;DHT22;14238;49.496;8.154;2022-09-01T11:42:06;22.80;99.90
26595;DHT22;14238;49.496;8.154;2022-09-01T11:47:29;22.80;99.90
26595;DHT22;14238;49.496;8.154;2022-09-01T11:49:58;22.30;99.90
26595;DHT22;14238;49.496;8.154;2022-09-01T11:52:27;22.30;99.90
26595;DHT22;14238;49.496;8.154;2022-09-01T11:54:54;22.60;99.90
26595;DHT22;14238;49.496;8.154;2022-09-01T11:57:33;22.90;99.90
26595;DHT22;14238;49.496;8.154;2022-09-01T12:00:01;22.80;99.90
26595;DHT22;14238;49.496;8.154;2022-09-01T12:02:34;22.40;99.90
26595;DHT22;14238;49.496;8.154;2022-09-01T12:05:02;22.20;99.90
26595;DHT22;14238;49.496;8.154;2022-09-01T12:07:40;22.30;99.90
26595;DHT22;14238;49.496;8.154;2022-09-01T12:10:31;22.80;99.90
26595;DHT22;14238;49.496;8.154;2022-09-01T12:13:09;24.10;99.90
26595;DHT22;14238;49.496;8.154;2022-09-01T12:15:37;25.00;99.90
26595;DHT22;14238;49.496;8.154;2022-09-01T12:18:24;25.70;99.90
26595;DHT22;14238;49.496;8.154;2022-09-01T12:20:54;26.10;99.90
26595;DHT22;14238;49.496;8.154;2022-09-01T12:23:31;26.00;99.90
26595;DHT22;14238;49.496;8.154;2022-09-01T12:26:00;25.90;99.90
26595;DHT22;14238;49.496;8.154;2022-09-01T12:28:29;24.90;99.90
26595;DHT22;14238;49.496;8.154;2022-09-01T12:31:05;25.00;99.90
26595;DHT22;14238;49.496;8.154;2022-09-01T12:33:32;25.50;99.90
26595;DHT22;14238;49.496;8.154;2022-09-01T12:36:26;25.10;99.90
26595;DHT22;14238;49.496;8.154;2022-09-01T12:39:03;24.00;99.90
26595;DHT22;14238;49.496;8.154;2022-09-01T12:41:44;23.60;99.90
26595;DHT22;14238;49.496;8.154;2022-09-01T12:47:09;23.20;99.90
26595;DHT22;14238;49.496;8.154;2022-09-01T12:49:42;23.10;99.90
26595;DHT22;14238;49.496;8.154;2022-09-01T12:54:46;23.10;99.90
26595;DHT22;14238;49.496;8.154;2022-09-01T12:57:28;23.00;99.90
26595;DHT22;14238;49.496;8.154;2022-09-01T13:05:18;24.20;99.90
26595;DHT22;14238;49.496;8.154;2022-09-01T13:07:44;25.40;99.90
26595;DHT22;14238;49.496;8.154;2022-09-01T13:10:09;26.20;99.90
26595;DHT22;14238;49.496;8.154;2022-09-01T13:12:39;26.30;99.90
26595;DHT22;14238;49.496;8.154;2022-09-01T13:15:07;26.80;99.90
26595;DHT22;14238;49.496;8.154;2022-09-01T13:17:32;27.00;98.40
26595;DHT22;14238;49.496;8.154;2022-09-01T13:19:58;27.10;98.20
26595;DHT22;14238;49.496;8.154;2022-09-01T13:22:23;27.40;97.50
26595;DHT22;14238;49.496;8.154;2022-09-01T13:24:49;27.50;95.80
26595;DHT22;14238;49.496;8.154;2022-09-01T13:27:15;27.50;96.60
26595;DHT22;14238;49.496;8.154;2022-09-01T13:29:40;27.20;96.00
26595;DHT22;14238;49.496;8.154;2022-09-01T13:32:06;26.80;97.50
26595;DHT22;14238;49.496;8.154;2022-09-01T13:34:33;27.30;97.50
26595;DHT22;14238;49.496;8.154;2022-09-01T13:36:59;27.10;95.70
26595;DHT22;14238;49.496;8.154;2022-09-01T13:39:25;26.90;96.20
26595;DHT22;14238;49.496;8.154;2022-09-01T13:41:50;26.50;96.30
26595;DHT22;14238;49.496;8.154;2022-09-01T13:44:17;27.00;96.20
26595;DHT22;14238;49.496;8.154;2022-09-01T13:46:43;27.40;96.30
26595;DHT22;14238;49.496;8.154;2022-09-01T13:49:09;27.80;95.10
26595;DHT22;14238;49.496;8.154;2022-09-01T13:51:34;27.40;94.70
26595;DHT22;14238;49.496;8.154;2022-09-01T13:54:01;27.10;95.70
26595;DHT22;14238;49.496;8.154;2022-09-01T13:56:28;27.00;94.90
26595;DHT22;14238;49.496;8.154;2022-09-01T13:58:53;26.20;96.40
26595;DHT22;14238;49.496;8.154;2022-09-01T14:01:19;26.10;97.00
26595;DHT22;14238;49.496;8.154;2022-09-01T14:03:46;26.00;96.50
26595;DHT22;14238;49.496;8.154;2022-09-01T14:06:12;25.90;97.40
26595;DHT22;14238;49.496;8.154;2022-09-01T14:08:38;26.10;97.20
26595;DHT22;14238;49.496;8.154;2022-09-01T14:11:03;26.20;95.80
26595;DHT22;14238;49.496;8.154;2022-09-01T14:13:29;26.20;96.50
26595;DHT22;14238;49.496;8.154;2022-09-01T14:15:56;26.10;96.80
26595;DHT22;14238;49.496;8.154;2022-09-01T14:18:22;25.90;96.40
26595;DHT22;14238;49.496;8.154;2022-09-01T14:20:49;26.30;96.50
26595;DHT22;14238;49.496;8.154;2022-09-01T14:23:16;26.90;95.20
26595;DHT22;14238;49.496;8.154;2022-09-01T14:25:51;26.80;94.50
26595;DHT22;14238;49.496;8.154;2022-09-01T14:28:18;26.70;95.20
26595;DHT22;14238;49.496;8.154;2022-09-01T14:30:44;27.20;94.90
26595;DHT22;14238;49.496;8.154;2022-09-01T14:33:11;27.20;94.50
26595;DHT22;14238;49.496;8.154;2022-09-01T14:35:42;27.30;94.10
26595;DHT22;14238;49.496;8.154;2022-09-01T14:38:08;27.80;94.10
26595;DHT22;14238;49.496;8.154;2022-09-01T14:40:36;28.00;93.40
26595;DHT22;14238;49.496;8.154;2022-09-01T14:43:04;28.00;92.30
26595;DHT22;14238;49.496;8.154;2022-09-01T14:45:30;28.20;92.00
26595;DHT22;14238;49.496;8.154;2022-09-01T14:47:58;28.30;92.70
26595;DHT22;14238;49.496;8.154;2022-09-01T14:50:25;28.10;91.80
26595;DHT22;14238;49.496;8.154;2022-09-01T14:52:53;28.10;91.80
26595;DHT22;14238;49.496;8.154;2022-09-01T14:55:21;28.20;92.70
26595;DHT22;14238;49.496;8.154;2022-09-01T14:57:47;28.10;91.90
26595;DHT22;14238;49.496;8.154;2022-09-01T15:00:13;28.00;91.90
26595;DHT22;14238;49.496;8.154;2022-09-01T15:02:40;27.80;92.30
26595;DHT22;14238;49.496;8.154;2022-09-01T15:05:06;27.40;93.10
26595;DHT22;14238;49.496;8.154;2022-09-01T15:07:32;27.60;93.30
26595;DHT22;14238;49.496;8.154;2022-09-01T15:09:58;27.60;92.70
26595;DHT22;14238;49.496;8.154;2022-09-01T15:12:24;27.50;92.40
26595;DHT22;14238;49.496;8.154;2022-09-01T15:14:50;27.60;92.70
26595;DHT22;14238;49.496;8.154;2022-09-01T15:17:16;27.90;92.60
26595;DHT22;14238;49.496;8.154;2022-09-01T15:19:42;28.00;92.80
26595;DHT22;14238;49.496;8.154;2022-09-01T15:22:07;27.20;92.40
26595;DHT22;14238;49.496;8.154;2022-09-01T15:24:35;27.10;93.80
26595;DHT22;14238;49.496;8.154;2022-09-01T15:27:00;27.40;94.20
26595;DHT22;14238;49.496;8.154;2022-09-01T15:29:26;27.70;93.10
26595;DHT22;14238;49.496;8.154;2022-09-01T15:31:52;27.70;92.60
26595;DHT22;14238;49.496;8.154;2022-09-01T15:34:18;27.60;92.00
26595;DHT22;14238;49.496;8.154;2022-09-01T15:36:43;27.10;94.10
26595;DHT22;14238;49.496;8.154;2022-09-01T15:39:10;26.90;93.70
26595;DHT22;14238;49.496;8.154;2022-09-01T15:41:36;27.10;94.60
26595;DHT22;14238;49.496;8.154;2022-09-01T15:44:04;27.40;94.30
26595;DHT22;14238;49.496;8.154;2022-09-01T15:46:30;27.30;93.90
26595;DHT22;14238;49.496;8.154;2022-09-01T15:49:06;27.30;94.10
26595;DHT22;14238;49.496;8.154;2022-09-01T15:51:37;26.90;93.80
26595;DHT22;14238;49.496;8.154;2022-09-01T15:54:13;26.30;94.40
26595;DHT22;14238;49.496;8.154;2022-09-01T15:56:39;25.80;95.00
26595;DHT22;14238;49.496;8.154;2022-09-01T15:59:06;25.70;95.60
26595;DHT22;14238;49.496;8.154;2022-09-01T16:01:34;25.40;95.60
26595;DHT22;14238;49.496;8.154;2022-09-01T16:04:00;25.10;96.40
26595;DHT22;14238;49.496;8.154;2022-09-01T16:06:27;25.00;96.50
26595;DHT22;14238;49.496;8.154;2022-09-01T16:08:52;24.90;96.60
26595;DHT22;14238;49.496;8.154;2022-09-01T16:11:22;24.80;97.20
26595;DHT22;14238;49.496;8.154;2022-09-01T16:13:48;24.60;97.30
26595;DHT22;14238;49.496;8.154;2022-09-01T16:16:30;24.50;97.40
26595;DHT22;14238;49.496;8.154;2022-09-01T16:21:53;24.20;97.50
26595;DHT22;14238;49.496;8.154;2022-09-01T16:24:20;24.10;97.80
26595;DHT22;14238;49.496;8.154;2022-09-01T16:26:47;24.00;97.70
26595;DHT22;14238;49.496;8.154;2022-09-01T16:29:37;23.90;98.30
26595;DHT22;14238;49.496;8.154;2022-09-01T16:32:04;23.90;97.90
26595;DHT22;14238;49.496;8.154;2022-09-01T16:34:30;23.90;98.10
26595;DHT22;14238;49.496;8.154;2022-09-01T16:45:54;23.70;98.20
26595;DHT22;14238;49.496;8.154;2022-09-01T16:51:36;23.60;98.50
26595;DHT22;14238;49.496;8.154;2022-09-01T16:57:29;23.50;98.40
26595;DHT22;14238;49.496;8.154;2022-09-01T16:59:59;23.20;98.40
26595;DHT22;14238;49.496;8.154;2022-09-01T17:05:11;23.20;99.40
26595;DHT22;14238;49.496;8.154;2022-09-01T17:10:38;23.10;99.20
26595;DHT22;14238;49.496;8.154;2022-09-01T17:13:44;23.10;99.30
26595;DHT22;14238;49.496;8.154;2022-09-01T17:18:56;22.90;99.70
26595;DHT22;14238;49.496;8.154;2022-09-01T17:21:39;22.90;99.80
26595;DHT22;14238;49.496;8.154;2022-09-01T17:26:59;22.80;99.90
26595;DHT22;14238;49.496;8.154;2022-09-01T17:29:37;22.80;99.90
26595;DHT22;14238;49.496;8.154;2022-09-01T17:32:30;22.80;99.90